createdAt,value
2018-10-02T00:01:32.738Z,10.23
2018-10-02T00:04:00.016Z,9.20
2018-10-02T00:06:27.307Z,9.20
2018-10-02T00:08:54.547Z,9.13
2018-10-02T00:11:27.460Z,8.33
2018-10-02T00:14:00.423Z,9.43
2018-10-02T00:16:27.685Z,15.40
2018-10-02T00:18:54.931Z,9.73
2018-10-02T00:21:22.183Z,11.53
2018-10-02T00:23:49.430Z,11.07
2018-10-02T00:26:16.687Z,10.83
2018-10-02T00:28:43.947Z,8.93
2018-10-02T00:31:11.615Z,12.10
2018-10-02T00:33:38.899Z,6.73
2018-10-02T00:36:06.179Z,9.63
2018-10-02T00:38:33.435Z,10.57
2018-10-02T00:41:00.739Z,8.30
2018-10-02T00:43:27.995Z,17.33
2018-10-02T00:45:55.263Z,14.10
2018-10-02T00:48:22.551Z,11.57
2018-10-02T00:50:49.830Z,10.67
2018-10-02T00:53:17.102Z,11.03
2018-10-02T00:55:44.359Z,10.83
2018-10-02T00:58:11.616Z,8.80
2018-10-02T01:00:38.891Z,9.53
2018-10-02T01:03:06.264Z,15.40
2018-10-02T01:05:33.548Z,10.70
2018-10-02T01:08:00.787Z,12.83
2018-10-02T01:10:28.063Z,10.53
2018-10-02T01:12:55.333Z,12.33
2018-10-02T01:15:22.637Z,12.03
2018-10-02T01:17:49.870Z,11.17
2018-10-02T01:20:17.135Z,11.97
2018-10-02T01:22:44.444Z,13.10
2018-10-02T01:25:11.747Z,12.17
2018-10-02T01:27:39.021Z,8.57
2018-10-02T01:30:09.214Z,11.97
2018-10-02T01:32:36.607Z,13.43
2018-10-02T01:35:03.928Z,10.80
2018-10-02T01:37:31.242Z,10.47
2018-10-02T01:39:58.582Z,12.90
2018-10-02T01:42:25.844Z,12.17
2018-10-02T01:44:53.235Z,11.80
2018-10-02T01:47:20.508Z,9.20
2018-10-02T01:49:47.843Z,10.10
2018-10-02T01:52:15.127Z,11.47
2018-10-02T01:54:42.379Z,10.80
2018-10-02T01:57:09.654Z,12.00
2018-10-02T01:59:36.929Z,10.17
2018-10-02T02:02:04.194Z,12.60
2018-10-02T02:04:31.464Z,9.37
2018-10-02T02:06:58.755Z,13.03
2018-10-02T02:09:26.039Z,10.23
2018-10-02T02:11:53.478Z,10.43
2018-10-02T02:14:20.790Z,10.50
2018-10-02T02:16:48.047Z,10.10
2018-10-02T02:19:15.307Z,8.90
2018-10-02T02:21:42.639Z,12.07
2018-10-02T02:24:09.895Z,9.90
2018-10-02T02:26:37.211Z,14.27
2018-10-02T02:29:04.498Z,9.70
2018-10-02T02:31:31.776Z,7.10
2018-10-02T02:33:59.071Z,7.40
2018-10-02T02:36:26.355Z,11.47
2018-10-02T02:38:53.668Z,10.97
2018-10-02T02:41:20.938Z,12.50
2018-10-02T02:43:48.222Z,9.10
2018-10-02T02:46:15.519Z,8.97
2018-10-02T02:48:48.485Z,6.97
2018-10-02T02:51:21.395Z,8.47
2018-10-02T02:53:48.698Z,10.67
2018-10-02T02:56:15.961Z,12.40
2018-10-02T02:58:43.227Z,8.77
2018-10-02T03:01:10.559Z,10.30
2018-10-02T03:03:37.840Z,12.87
2018-10-02T03:06:05.097Z,11.47
2018-10-02T03:08:32.355Z,9.97
2018-10-02T03:10:59.611Z,9.10
2018-10-02T03:13:26.888Z,8.50
2018-10-02T03:15:54.160Z,8.43
2018-10-02T03:18:21.416Z,7.73
2018-10-02T03:20:48.706Z,10.30
2018-10-02T03:23:16.063Z,8.27
2018-10-02T03:25:43.347Z,8.93
2018-10-02T03:28:10.607Z,9.83
2018-10-02T03:30:37.869Z,9.50
2018-10-02T03:33:05.586Z,9.97
2018-10-02T03:35:32.851Z,10.87
2018-10-02T03:38:00.198Z,10.40
2018-10-02T03:40:27.379Z,7.63
2018-10-02T03:42:54.639Z,6.27
2018-10-02T03:45:21.938Z,8.77
2018-10-02T03:47:49.219Z,8.53
2018-10-02T03:50:16.487Z,10.10
2018-10-02T03:52:43.756Z,9.50
2018-10-02T03:55:11.015Z,12.30
2018-10-02T03:57:38.278Z,7.23
2018-10-02T04:00:05.720Z,6.27
2018-10-02T04:02:32.992Z,8.23
2018-10-02T04:05:00.256Z,12.37
2018-10-02T04:07:27.523Z,10.80
2018-10-02T04:09:54.808Z,7.60
2018-10-02T04:12:22.092Z,5.70
2018-10-02T04:14:49.343Z,8.77
2018-10-02T04:17:16.624Z,8.43
2018-10-02T04:19:43.887Z,6.20
2018-10-02T04:22:11.159Z,9.77
2018-10-02T04:24:38.407Z,11.23
2018-10-02T04:27:05.667Z,10.07
2018-10-02T04:29:32.922Z,8.20
2018-10-02T04:32:00.227Z,7.50
2018-10-02T04:34:27.493Z,9.93
2018-10-02T04:36:54.763Z,6.97
2018-10-02T04:39:22.026Z,7.63
2018-10-02T04:41:49.291Z,6.30
2018-10-02T04:44:16.559Z,8.07
2018-10-02T04:46:43.850Z,7.00
2018-10-02T04:49:11.113Z,7.17
2018-10-02T04:51:38.396Z,7.87
2018-10-02T04:54:05.683Z,7.50
2018-10-02T04:56:33.023Z,11.30
2018-10-02T04:59:00.296Z,7.87
2018-10-02T05:01:27.565Z,7.60
2018-10-02T05:03:54.848Z,8.47
2018-10-02T05:06:22.116Z,10.83
2018-10-02T05:08:49.464Z,6.30
2018-10-02T05:11:16.759Z,8.30
2018-10-02T05:13:44.027Z,8.03
2018-10-02T05:16:11.316Z,12.03
2018-10-02T05:18:38.592Z,7.43
2018-10-02T05:21:05.892Z,8.13
2018-10-02T05:23:33.161Z,11.93
2018-10-02T05:26:00.452Z,10.10
2018-10-02T05:28:27.703Z,9.80
2018-10-02T05:30:54.999Z,6.70
2018-10-02T05:33:22.272Z,8.17
2018-10-02T05:35:49.628Z,12.60
2018-10-02T05:38:16.892Z,7.83
2018-10-02T05:40:44.188Z,8.53
2018-10-02T05:43:11.452Z,8.40
2018-10-02T05:45:38.724Z,6.37
2018-10-02T05:48:06.020Z,8.13
2018-10-02T05:50:33.327Z,9.50
2018-10-02T05:53:00.561Z,9.17
2018-10-02T05:55:27.912Z,13.30
2018-10-02T05:57:55.233Z,8.87
2018-10-02T06:00:22.516Z,9.93
2018-10-02T06:02:49.836Z,8.33
2018-10-02T06:05:17.172Z,7.60
2018-10-02T06:07:44.464Z,7.43
2018-10-02T06:10:11.776Z,9.33
2018-10-02T06:12:39.072Z,9.97
2018-10-02T06:15:06.440Z,8.70
2018-10-02T06:17:33.720Z,6.27
2018-10-02T06:20:01.000Z,8.50
2018-10-02T06:22:28.284Z,6.80
2018-10-02T06:24:55.568Z,6.73
2018-10-02T06:27:22.847Z,6.17
2018-10-02T06:29:50.122Z,7.70
2018-10-02T06:32:17.404Z,9.07
2018-10-02T06:34:44.684Z,5.65
2018-10-02T06:37:11.956Z,6.53
2018-10-02T06:39:39.233Z,9.30
2018-10-02T06:42:06.531Z,6.63
2018-10-02T06:44:33.885Z,7.70
2018-10-02T06:47:01.116Z,7.37
2018-10-02T06:49:28.397Z,7.70
2018-10-02T06:51:55.717Z,8.03
2018-10-02T06:54:23.259Z,4.53
2018-10-02T06:56:50.592Z,9.83
2018-10-02T06:59:17.875Z,7.10
2018-10-02T07:01:45.164Z,6.27
2018-10-02T07:04:12.436Z,8.27
2018-10-02T07:06:39.754Z,7.93
2018-10-02T07:09:08.289Z,10.57
2018-10-02T07:11:36.084Z,7.27
2018-10-02T07:14:03.416Z,7.47
2018-10-02T07:16:30.716Z,6.83
2018-10-02T07:18:57.982Z,6.13
2018-10-02T07:21:25.260Z,8.43
2018-10-02T07:23:52.544Z,9.47
2018-10-02T07:26:19.805Z,7.20
2018-10-02T07:28:47.068Z,8.57
2018-10-02T07:31:14.340Z,5.20
2018-10-02T07:33:41.632Z,7.47
2018-10-02T07:36:08.885Z,8.43
2018-10-02T07:38:36.243Z,6.93
2018-10-02T07:41:03.560Z,7.30
2018-10-02T07:43:30.827Z,8.63
2018-10-02T07:45:58.101Z,7.60
2018-10-02T07:48:25.444Z,5.90
2018-10-02T07:50:52.698Z,9.13
2018-10-02T07:53:20.076Z,8.07
2018-10-02T07:55:47.338Z,10.07
2018-10-02T07:58:14.600Z,6.93
2018-10-02T08:00:41.865Z,8.43
2018-10-02T08:03:09.145Z,11.73
2018-10-02T08:05:36.492Z,7.43
2018-10-02T08:08:03.701Z,11.17
2018-10-02T08:10:31.013Z,9.97
2018-10-02T08:12:58.317Z,9.27
2018-10-02T08:15:25.628Z,12.17
2018-10-02T08:17:52.972Z,9.80
2018-10-02T08:20:20.228Z,13.97
2018-10-02T08:22:47.512Z,9.43
2018-10-02T08:25:14.806Z,10.53
2018-10-02T08:27:42.096Z,9.63
2018-10-02T08:30:11.579Z,12.63
2018-10-02T08:32:38.837Z,8.90
2018-10-02T08:35:06.175Z,8.53
2018-10-02T08:37:33.556Z,13.70
2018-10-02T08:40:00.912Z,12.13
2018-10-02T08:42:28.203Z,10.07
2018-10-02T08:44:55.557Z,9.33
2018-10-02T08:47:22.826Z,9.67
2018-10-02T08:49:50.104Z,10.97
2018-10-02T08:52:17.460Z,12.27
2018-10-02T08:54:44.664Z,10.80
2018-10-02T08:57:11.965Z,10.27
2018-10-02T08:59:39.240Z,8.70
2018-10-02T09:02:06.620Z,9.83
2018-10-02T09:04:33.888Z,10.17
2018-10-02T09:07:01.291Z,10.20
2018-10-02T09:09:28.500Z,10.47
2018-10-02T09:11:55.792Z,11.27
2018-10-02T09:14:23.080Z,8.87
2018-10-02T09:16:50.419Z,9.30
2018-10-02T09:19:17.610Z,10.90
2018-10-02T09:21:44.920Z,12.77
2018-10-02T09:24:12.196Z,11.97
2018-10-02T09:26:39.460Z,9.23
2018-10-02T09:29:06.726Z,10.07
2018-10-02T09:31:39.646Z,11.23
2018-10-02T09:34:12.728Z,10.30
2018-10-02T09:36:45.673Z,9.13
2018-10-02T09:39:18.480Z,9.67
2018-10-02T09:41:51.416Z,8.93
2018-10-02T09:44:18.730Z,8.53
2018-10-02T09:46:46.031Z,8.23
2018-10-02T09:49:13.343Z,9.60
2018-10-02T09:51:40.706Z,7.83
2018-10-02T09:54:07.947Z,9.80
2018-10-02T09:56:42.000Z,10.23
2018-10-02T09:59:10.417Z,6.60
2018-10-02T10:01:43.347Z,9.07
2018-10-02T10:04:10.647Z,8.90
2018-10-02T10:06:37.912Z,10.87
2018-10-02T10:09:06.526Z,9.33
2018-10-02T10:11:33.880Z,7.27
2018-10-02T10:14:01.181Z,9.40
2018-10-02T10:16:28.481Z,7.43
2018-10-02T10:18:55.732Z,10.13
2018-10-02T10:21:22.996Z,8.70
2018-10-02T10:23:50.296Z,8.17
2018-10-02T10:26:17.772Z,8.47
2018-10-02T10:28:45.079Z,9.27
2018-10-02T10:31:12.336Z,8.03
2018-10-02T10:33:39.680Z,8.53
2018-10-02T10:36:06.931Z,9.33
2018-10-02T10:38:34.218Z,8.53
2018-10-02T10:41:01.610Z,8.57
2018-10-02T10:43:28.788Z,8.83
2018-10-02T10:45:56.077Z,8.63
2018-10-02T10:48:23.367Z,7.40
2018-10-02T10:50:50.651Z,8.23
2018-10-02T10:53:17.957Z,8.57
2018-10-02T10:55:45.221Z,8.27
2018-10-02T10:58:12.493Z,7.13
2018-10-02T11:00:39.767Z,6.90
2018-10-02T11:03:07.093Z,8.07
2018-10-02T11:05:34.320Z,9.17
2018-10-02T11:08:01.612Z,8.63
2018-10-02T11:10:28.898Z,9.03
2018-10-02T11:12:56.165Z,8.40
2018-10-02T11:15:24.747Z,9.27
2018-10-02T11:17:52.032Z,8.87
2018-10-02T11:20:22.712Z,8.90
2018-10-02T11:22:49.996Z,8.60
2018-10-02T11:25:17.304Z,10.60
2018-10-02T11:27:44.555Z,8.13
2018-10-02T11:30:12.527Z,9.20
2018-10-02T11:32:39.799Z,9.93
2018-10-02T11:35:07.116Z,10.10
2018-10-02T11:37:34.435Z,12.13
2018-10-02T11:40:01.656Z,12.83
2018-10-02T11:42:28.924Z,11.17
2018-10-02T11:44:56.393Z,11.87
2018-10-02T11:47:23.528Z,11.80
2018-10-02T11:49:50.873Z,11.30
2018-10-02T11:52:18.164Z,11.75
2018-10-02T11:54:45.441Z,13.20
2018-10-02T11:57:12.728Z,11.80
2018-10-02T11:59:40.004Z,15.87
2018-10-02T12:02:07.361Z,15.50
2018-10-02T12:04:34.656Z,14.60
2018-10-02T12:07:01.941Z,15.00
2018-10-02T12:09:29.229Z,15.37
2018-10-02T12:11:56.495Z,15.93
2018-10-02T12:14:23.929Z,17.77
2018-10-02T12:16:51.051Z,16.53
2018-10-02T12:19:18.423Z,18.57
2018-10-02T12:21:45.704Z,20.93
2018-10-02T12:24:13.005Z,18.83
2018-10-02T12:26:40.304Z,19.50
2018-10-02T12:29:07.594Z,18.77
2018-10-02T12:31:34.892Z,24.03
2018-10-02T12:34:02.153Z,20.80
2018-10-02T12:36:29.455Z,22.00
2018-10-02T12:38:56.773Z,22.23
2018-10-02T12:41:24.034Z,22.43
2018-10-02T12:43:51.316Z,24.47
2018-10-02T12:46:18.623Z,25.00
2018-10-02T12:48:45.875Z,24.47
2018-10-02T12:51:13.199Z,25.43
2018-10-02T12:53:40.900Z,31.43
2018-10-02T12:56:08.196Z,31.97
2018-10-02T12:58:36.054Z,26.67
2018-10-02T13:01:03.346Z,33.30
2018-10-02T13:03:30.619Z,28.30
2018-10-02T13:08:24.637Z,30.00
2018-10-02T13:10:51.912Z,31.20
2018-10-02T13:13:19.270Z,28.20
2018-10-02T13:18:13.293Z,35.10
2018-10-02T13:20:40.576Z,37.65
2018-10-02T13:25:34.640Z,31.55
2018-10-02T13:28:01.924Z,35.10
2018-10-02T13:30:29.180Z,36.13
2018-10-02T13:32:56.439Z,31.10
2018-10-02T13:37:50.628Z,34.75
2018-10-02T13:40:17.916Z,32.20
2018-10-02T13:42:45.292Z,33.90
2018-10-02T13:45:12.576Z,33.10
2018-10-02T13:47:39.861Z,31.07
2018-10-02T13:50:07.205Z,31.00
2018-10-02T13:52:34.476Z,28.90
2018-10-02T13:55:01.748Z,32.77
2018-10-02T13:57:29.032Z,26.83
2018-10-02T13:59:56.322Z,26.40
2018-10-02T14:02:23.608Z,21.30
2018-10-02T14:04:50.889Z,25.10
2018-10-02T14:07:18.160Z,22.83
2018-10-02T14:09:45.440Z,22.20
2018-10-02T14:12:12.796Z,20.67
2018-10-02T14:14:40.107Z,19.40
2018-10-02T14:17:07.709Z,15.90
2018-10-02T14:19:34.984Z,14.57
2018-10-02T14:22:02.311Z,15.50
2018-10-02T14:24:29.603Z,13.60
2018-10-02T14:26:56.885Z,10.53
2018-10-02T14:29:24.156Z,9.83
2018-10-02T14:31:51.436Z,7.30
2018-10-02T14:34:18.711Z,5.73
2018-10-02T14:36:46.066Z,8.50
2018-10-02T14:39:13.293Z,4.73
2018-10-02T14:41:40.584Z,6.43
2018-10-02T14:44:07.898Z,6.23
2018-10-02T14:46:35.203Z,7.70
2018-10-02T14:49:02.488Z,7.23
2018-10-02T14:51:29.756Z,6.57
2018-10-02T14:53:57.041Z,4.43
2018-10-02T14:56:24.326Z,5.13
2018-10-02T14:58:51.600Z,7.53
2018-10-02T15:01:18.916Z,6.60
2018-10-02T15:03:46.278Z,5.17
2018-10-02T15:06:13.548Z,6.07
2018-10-02T15:08:40.810Z,4.33
2018-10-02T15:11:08.068Z,6.30
2018-10-02T15:13:35.335Z,7.20
2018-10-02T15:16:02.590Z,5.57
2018-10-02T15:18:29.859Z,8.67
2018-10-02T15:20:57.121Z,5.50
2018-10-02T15:23:24.377Z,5.93
2018-10-02T15:25:52.100Z,6.27
2018-10-02T15:28:19.364Z,6.17
2018-10-02T15:30:46.629Z,6.67
2018-10-02T15:33:13.896Z,6.53
2018-10-02T15:35:41.160Z,8.27
2018-10-02T15:38:08.515Z,7.37
2018-10-02T15:40:35.700Z,7.90
2018-10-02T15:43:03.008Z,5.63
2018-10-02T15:45:30.304Z,4.67
2018-10-02T15:47:57.575Z,7.87
2018-10-02T15:50:24.868Z,8.43
2018-10-02T15:52:52.220Z,9.83
2018-10-02T15:55:19.484Z,5.87
2018-10-02T15:57:46.759Z,7.30
2018-10-02T16:00:14.054Z,5.23
2018-10-02T16:02:41.328Z,7.77
2018-10-02T16:05:08.632Z,7.20
2018-10-02T16:07:35.940Z,6.13
2018-10-02T16:10:03.308Z,7.37
2018-10-02T16:12:30.589Z,6.10
2018-10-02T16:14:57.856Z,6.53
2018-10-02T16:17:25.198Z,7.37
2018-10-02T16:19:52.486Z,6.87
2018-10-02T16:22:19.782Z,7.97
2018-10-02T16:24:47.057Z,5.10
2018-10-02T16:27:14.300Z,7.83
2018-10-02T16:29:41.563Z,6.33
2018-10-02T16:32:09.105Z,6.33
2018-10-02T16:34:48.978Z,8.00
2018-10-02T16:37:04.495Z,5.53
2018-10-02T16:39:31.752Z,7.77
2018-10-02T16:41:59.091Z,4.80
2018-10-02T16:44:26.444Z,5.90
2018-10-02T16:46:53.727Z,6.30
2018-10-02T16:49:20.997Z,6.80
2018-10-02T16:51:48.267Z,6.30
2018-10-02T16:54:15.529Z,8.47
2018-10-02T16:56:42.813Z,6.57
2018-10-02T16:59:10.126Z,8.17
2018-10-02T17:01:37.391Z,7.17
2018-10-02T17:04:04.875Z,7.13
2018-10-02T17:06:32.120Z,6.93
2018-10-02T17:08:59.388Z,9.03
2018-10-02T17:11:26.761Z,7.07
2018-10-02T17:13:54.040Z,8.90
2018-10-02T17:16:21.304Z,7.77
2018-10-02T17:18:48.585Z,8.20
2018-10-02T17:21:15.840Z,7.20
2018-10-02T17:23:43.104Z,6.73
2018-10-02T17:26:10.376Z,7.00
2018-10-02T17:28:37.653Z,9.20
2018-10-02T17:31:04.991Z,6.97
2018-10-02T17:33:32.288Z,7.07
2018-10-02T17:35:59.564Z,10.23
2018-10-02T17:38:26.818Z,7.47
2018-10-02T17:40:54.205Z,8.07
2018-10-02T17:43:21.485Z,7.60
2018-10-02T17:45:49.168Z,7.40
2018-10-02T17:48:16.441Z,8.53
2018-10-02T17:50:43.733Z,7.50
2018-10-02T17:53:11.077Z,8.40
2018-10-02T17:55:38.344Z,8.87
2018-10-02T17:58:06.190Z,7.53
2018-10-02T18:00:33.513Z,5.70
2018-10-02T18:03:00.820Z,9.23
2018-10-02T18:05:28.084Z,8.33
2018-10-02T18:07:55.363Z,7.53
2018-10-02T18:10:22.637Z,9.93
2018-10-02T18:12:49.963Z,4.70
2018-10-02T18:15:17.237Z,11.50
2018-10-02T18:17:44.516Z,7.63
2018-10-02T18:20:11.808Z,9.23
2018-10-02T18:22:39.083Z,9.57
2018-10-02T18:25:06.363Z,10.60
2018-10-02T18:27:33.688Z,7.70
2018-10-02T18:30:01.011Z,7.87
2018-10-02T18:32:28.288Z,9.83
2018-10-02T18:34:55.548Z,5.43
2018-10-02T18:37:22.822Z,7.00
2018-10-02T18:39:50.189Z,8.37
2018-10-02T18:42:17.432Z,7.87
2018-10-02T18:44:44.736Z,11.27
2018-10-02T18:47:11.996Z,7.47
2018-10-02T18:49:39.264Z,11.57
2018-10-02T18:52:06.528Z,9.93
2018-10-02T18:54:33.820Z,12.20
2018-10-02T18:57:01.093Z,13.23
2018-10-02T18:59:28.400Z,14.83
2018-10-02T19:01:55.750Z,9.40
2018-10-02T19:04:23.045Z,9.43
2018-10-02T19:06:50.315Z,10.20
2018-10-02T19:09:18.164Z,11.07
2018-10-02T19:11:51.076Z,10.30
2018-10-02T19:14:19.202Z,10.73
2018-10-02T19:16:46.510Z,9.67
2018-10-02T19:19:19.355Z,11.33
2018-10-02T19:21:46.617Z,6.87
2018-10-02T19:24:14.176Z,7.83
2018-10-02T19:26:41.448Z,10.77
2018-10-02T19:29:08.842Z,11.87
2018-10-02T19:32:40.028Z,9.07
2018-10-02T19:35:07.304Z,9.40
2018-10-02T19:37:40.168Z,8.35
2018-10-02T19:40:07.390Z,10.70
2018-10-02T19:42:34.673Z,9.20
2018-10-02T19:45:07.580Z,9.93
2018-10-02T19:47:34.879Z,8.40
2018-10-02T19:50:02.161Z,9.20
2018-10-02T19:52:29.416Z,11.90
2018-10-02T19:54:56.712Z,8.47
2018-10-02T19:57:23.993Z,9.40
2018-10-02T19:59:51.264Z,13.00
2018-10-02T20:02:18.585Z,13.10
2018-10-02T20:04:45.843Z,11.95
2018-10-02T20:09:39.940Z,10.80
2018-10-02T20:12:07.212Z,14.10
2018-10-02T20:14:34.529Z,12.70
2018-10-02T20:17:01.811Z,10.60
2018-10-02T20:19:29.093Z,11.00
2018-10-02T20:21:56.416Z,10.43
2018-10-02T20:24:23.700Z,14.30
2018-10-02T20:26:50.970Z,11.15
2018-10-02T20:29:18.243Z,12.80
2018-10-02T20:31:47.420Z,11.50
2018-10-02T20:34:14.691Z,12.10
2018-10-02T20:36:42.078Z,13.50
2018-10-02T20:39:10.363Z,12.85
2018-10-02T20:41:37.684Z,13.75
2018-10-02T20:44:05.274Z,12.80
2018-10-02T20:46:32.608Z,12.50
2018-10-02T20:48:59.959Z,9.80
2018-10-02T20:51:27.186Z,13.05
2018-10-02T20:53:54.480Z,9.80
2018-10-02T20:56:21.846Z,13.10
2018-10-02T20:58:49.125Z,14.10
2018-10-02T21:01:16.432Z,13.65
2018-10-02T21:03:43.736Z,11.50
2018-10-02T21:06:11.088Z,11.75
2018-10-02T21:08:38.353Z,14.53
2018-10-02T21:11:05.871Z,11.80
2018-10-02T21:13:33.330Z,15.23
2018-10-02T21:16:00.617Z,14.75
2018-10-02T21:18:27.933Z,13.80
2018-10-02T21:20:55.906Z,15.95
2018-10-02T21:23:23.495Z,15.10
2018-10-02T21:25:50.772Z,13.75
2018-10-02T21:28:18.068Z,17.80
2018-10-02T21:30:45.344Z,10.70
2018-10-02T21:33:12.616Z,12.23
2018-10-02T21:35:39.892Z,15.57
2018-10-02T21:38:07.143Z,12.35
2018-10-02T21:40:34.408Z,14.70
2018-10-02T21:43:01.672Z,12.13
2018-10-02T21:50:22.552Z,13.80
2018-10-02T21:55:16.560Z,12.55
2018-10-02T22:02:37.624Z,14.60
2018-10-02T22:12:25.540Z,12.90
2018-10-02T22:19:46.321Z,14.95
2018-10-02T22:24:40.356Z,17.60
2018-10-02T22:27:07.632Z,18.10
2018-10-02T22:29:34.908Z,23.35
2018-10-02T22:34:29.344Z,21.85
2018-10-02T22:36:56.601Z,19.47
2018-10-02T22:44:17.364Z,19.10
2018-10-02T22:56:31.757Z,22.65
2018-10-02T23:03:52.561Z,23.50
2018-10-02T23:25:54.021Z,26.90
2018-10-02T23:28:21.304Z,30.30
2018-10-02T23:30:48.590Z,25.77
2018-10-02T23:33:15.901Z,38.97
2018-10-02T23:35:43.191Z,33.97
2018-10-02T23:38:10.520Z,41.00
2018-10-02T23:40:37.795Z,37.33
2018-10-02T23:43:05.274Z,40.47
2018-10-02T23:57:46.432Z,30.90
